createdAt,value
2023-02-22T00:02:27.200Z,98224.50
2023-02-22T00:04:54.154Z,98220.31
2023-02-22T00:07:21.493Z,98249.03
2023-02-22T00:09:47.976Z,98250.88
2023-02-22T00:12:14.422Z,98239.31
2023-02-22T00:14:42.255Z,98189.09
2023-02-22T00:17:08.787Z,98177.38
2023-02-22T00:19:35.811Z,98193.03
2023-02-22T00:22:03.305Z,98206.72
2023-02-22T00:24:31.428Z,98255.41
2023-02-22T00:26:57.921Z,98260.34
2023-02-22T00:29:25.129Z,98260.44
2023-02-22T00:31:51.795Z,98304.22
2023-02-22T00:34:18.301Z,98310.44
2023-02-22T00:36:48.325Z,98234.00
2023-02-22T00:39:14.822Z,98179.34
2023-02-22T00:41:41.409Z,98188.56
2023-02-22T00:44:08.030Z,98168.84
2023-02-22T00:46:34.554Z,98196.78
2023-02-22T00:49:00.994Z,98196.06
2023-02-22T00:51:28.897Z,98192.72
2023-02-22T00:53:55.320Z,98233.56
2023-02-22T00:56:22.116Z,98219.94
2023-02-22T00:58:48.815Z,98208.66
2023-02-22T01:01:15.603Z,98281.81
2023-02-22T01:03:42.319Z,98285.69
2023-02-22T01:06:08.930Z,98265.94
2023-02-22T01:08:35.573Z,98264.59
2023-02-22T01:11:02.052Z,98273.97
2023-02-22T01:13:28.611Z,98264.03
2023-02-22T01:15:56.743Z,98224.25
2023-02-22T01:18:23.505Z,98229.31
2023-02-22T01:20:50.035Z,98252.88
2023-02-22T01:23:18.835Z,98288.16
2023-02-22T01:25:45.912Z,98360.19
2023-02-22T01:28:13.744Z,98356.75
2023-02-22T01:30:40.319Z,98362.03
2023-02-22T01:33:07.655Z,98371.00
2023-02-22T01:35:35.988Z,98342.84
2023-02-22T01:38:02.699Z,98343.66
2023-02-22T01:40:30.878Z,98355.38
2023-02-22T01:42:58.713Z,98375.91
2023-02-22T01:45:38.481Z,98440.28
2023-02-22T01:48:08.696Z,98474.97
2023-02-22T01:50:41.062Z,98466.69
2023-02-22T01:53:08.312Z,98444.09
2023-02-22T01:55:35.548Z,98444.38
2023-02-22T01:58:04.336Z,98478.13
2023-02-22T02:00:31.012Z,98505.69
2023-02-22T02:03:02.858Z,98511.28
2023-02-22T02:05:31.438Z,98488.75
2023-02-22T02:07:58.395Z,98465.50
2023-02-22T02:10:26.707Z,98491.69
2023-02-22T02:12:53.339Z,98530.22
2023-02-22T02:15:19.822Z,98497.50
2023-02-22T02:17:47.159Z,98491.91
2023-02-22T02:20:17.268Z,98520.13
2023-02-22T02:22:44.721Z,98537.22
2023-02-22T02:25:31.437Z,98570.22
2023-02-22T02:28:07.962Z,98627.94
2023-02-22T02:30:34.490Z,98601.72
2023-02-22T02:33:06.916Z,98560.47
2023-02-22T02:35:48.824Z,98588.84
2023-02-22T02:38:41.772Z,98649.84
2023-02-22T02:41:19.712Z,98677.41
2023-02-22T02:43:51.965Z,98711.06
2023-02-22T02:46:22.097Z,98711.22
2023-02-22T02:48:56.764Z,98702.03
2023-02-22T02:51:26.609Z,98702.00
2023-02-22T02:53:54.370Z,98734.53
2023-02-22T02:56:20.947Z,98743.66
2023-02-22T02:58:52.894Z,98757.63
2023-02-22T03:01:38.398Z,98762.88
2023-02-22T03:04:30.648Z,98785.94
2023-02-22T03:06:57.120Z,98796.06
2023-02-22T03:09:29.362Z,98768.06
2023-02-22T03:12:14.841Z,98787.34
2023-02-22T03:14:50.757Z,98804.97
2023-02-22T03:17:24.068Z,98816.72
2023-02-22T03:20:11.762Z,98810.06
2023-02-22T03:22:55.404Z,98808.63
2023-02-22T03:25:31.165Z,98811.66
2023-02-22T03:28:04.722Z,98886.22
2023-02-22T03:30:54.387Z,98880.97
2023-02-22T03:33:33.692Z,98803.34
2023-02-22T03:36:03.684Z,98853.50
2023-02-22T03:38:32.154Z,98934.91
2023-02-22T03:41:00.905Z,98965.44
2023-02-22T03:43:34.754Z,98973.69
2023-02-22T03:46:05.017Z,98957.31
2023-02-22T03:48:49.961Z,98831.16
2023-02-22T03:51:17.630Z,98761.69
2023-02-22T03:53:50.317Z,98768.94
2023-02-22T03:56:21.643Z,98820.22
2023-02-22T03:58:49.252Z,98861.22
2023-02-22T04:01:16.701Z,98871.19
2023-02-22T04:03:43.503Z,98909.00
2023-02-22T04:06:10.461Z,98923.97
2023-02-22T04:08:36.970Z,98897.72
2023-02-22T04:11:04.575Z,98865.94
2023-02-22T04:13:31.067Z,98870.59
2023-02-22T04:15:57.604Z,98912.50
2023-02-22T04:18:24.117Z,98969.53
2023-02-22T04:20:51.761Z,99004.50
2023-02-22T04:23:18.300Z,99009.56
2023-02-22T04:25:44.724Z,99023.97
2023-02-22T04:28:12.285Z,99018.84
2023-02-22T04:30:38.786Z,98983.56
2023-02-22T04:33:05.334Z,98901.31
2023-02-22T04:35:34.350Z,98843.44
2023-02-22T04:38:02.544Z,98918.13
2023-02-22T04:40:28.987Z,98938.56
2023-02-22T04:42:55.619Z,98934.22
2023-02-22T04:45:22.089Z,98938.63
2023-02-22T04:47:48.543Z,98939.94
2023-02-22T04:50:16.308Z,98953.81
2023-02-22T04:52:42.777Z,98952.69
2023-02-22T04:55:09.973Z,98918.47
2023-02-22T04:57:36.432Z,98911.97
2023-02-22T05:00:04.586Z,98916.53
2023-02-22T05:02:31.253Z,98984.72
2023-02-22T05:04:57.762Z,98988.44
2023-02-22T05:07:24.232Z,99005.78
2023-02-22T05:09:50.726Z,98971.78
2023-02-22T05:12:17.250Z,99009.94
2023-02-22T05:14:44.531Z,99027.06
2023-02-22T05:17:10.973Z,99063.63
2023-02-22T05:19:37.509Z,99084.25
2023-02-22T05:22:07.097Z,99092.53
2023-02-22T05:24:33.600Z,99084.06
2023-02-22T05:27:00.112Z,99024.19
2023-02-22T05:29:27.283Z,99028.91
2023-02-22T05:31:53.874Z,99040.81
2023-02-22T05:34:20.373Z,99073.94
2023-02-22T05:36:46.868Z,99040.63
2023-02-22T05:39:13.314Z,98976.53
2023-02-22T05:41:39.792Z,98966.09
2023-02-22T05:44:06.309Z,98976.16
2023-02-22T05:46:32.811Z,99040.72
2023-02-22T05:48:59.393Z,99085.31
2023-02-22T05:51:25.893Z,99089.38
2023-02-22T05:53:52.656Z,99099.97
2023-02-22T05:56:26.200Z,99060.41
2023-02-22T05:58:52.793Z,98970.84
2023-02-22T06:01:19.655Z,98928.22
2023-02-22T06:03:47.354Z,98905.19
2023-02-22T06:06:13.800Z,98983.91
2023-02-22T06:08:40.524Z,99023.31
2023-02-22T06:11:06.993Z,99037.19
2023-02-22T06:13:33.441Z,99044.28
2023-02-22T06:16:00.063Z,98985.75
2023-02-22T06:18:26.900Z,98924.31
2023-02-22T06:20:53.388Z,98883.72
2023-02-22T06:23:20.287Z,98846.09
2023-02-22T06:25:47.173Z,98909.09
2023-02-22T06:28:14.322Z,98932.78
2023-02-22T06:30:43.485Z,98980.00
2023-02-22T06:33:10.440Z,99011.53
2023-02-22T06:35:36.925Z,99031.56
2023-02-22T06:38:03.455Z,99034.97
2023-02-22T06:40:29.960Z,99047.06
2023-02-22T06:42:57.261Z,99038.38
2023-02-22T06:45:24.040Z,98995.47
2023-02-22T06:47:50.558Z,98962.38
2023-02-22T06:50:20.223Z,98920.38
2023-02-22T06:52:48.020Z,98876.28
2023-02-22T06:55:34.817Z,98887.81
2023-02-22T06:58:01.836Z,98921.81
2023-02-22T07:00:29.070Z,98949.72
2023-02-22T07:02:56.070Z,98942.06
2023-02-22T07:05:23.580Z,98910.69
2023-02-22T07:07:52.572Z,98893.69
2023-02-22T07:10:21.551Z,98881.94
2023-02-22T07:12:48.979Z,98907.06
2023-02-22T07:15:18.137Z,98987.19
2023-02-22T07:17:44.918Z,99010.25
2023-02-22T07:20:12.773Z,99011.53
2023-02-22T07:22:40.549Z,98943.34
2023-02-22T07:25:10.102Z,98904.44
2023-02-22T07:27:37.259Z,98898.72
2023-02-22T07:30:05.102Z,98881.44
2023-02-22T07:32:31.626Z,98851.19
2023-02-22T07:34:58.290Z,98863.19
2023-02-22T07:37:24.725Z,98887.56
2023-02-22T07:39:51.230Z,98875.97
2023-02-22T07:42:17.670Z,98879.63
2023-02-22T07:44:44.136Z,98893.41
2023-02-22T07:47:12.727Z,98859.47
2023-02-22T07:49:39.439Z,98851.53
2023-02-22T07:52:09.008Z,98849.66
2023-02-22T07:54:35.468Z,98858.25
2023-02-22T07:57:03.803Z,98862.31
2023-02-22T07:59:30.276Z,98872.03
2023-02-22T08:01:56.748Z,98842.69
2023-02-22T08:04:23.208Z,98829.25
2023-02-22T08:06:50.310Z,98810.66
2023-02-22T08:09:16.765Z,98815.81
2023-02-22T08:11:43.236Z,98798.03
2023-02-22T08:14:09.732Z,98821.13
2023-02-22T08:16:36.239Z,98827.19
2023-02-22T08:19:02.727Z,98836.13
2023-02-22T08:21:30.469Z,98849.66
2023-02-22T08:23:57.375Z,98855.84
2023-02-22T08:26:25.454Z,98846.81
2023-02-22T08:28:53.292Z,98855.34
2023-02-22T08:31:20.083Z,98842.78
2023-02-22T08:33:50.070Z,98830.53
2023-02-22T08:36:16.589Z,98804.16
2023-02-22T08:38:43.073Z,98794.63
2023-02-22T08:41:09.539Z,98773.78
2023-02-22T08:43:35.976Z,98729.94
2023-02-22T08:46:02.521Z,98714.91
2023-02-22T08:48:29.083Z,98670.81
2023-02-22T08:50:57.405Z,98626.34
2023-02-22T08:53:23.848Z,98587.94
2023-02-22T08:55:50.353Z,98579.88
2023-02-22T08:58:16.803Z,98563.34
2023-02-22T09:00:44.846Z,98578.41
2023-02-22T09:03:15.923Z,98577.91
2023-02-22T09:05:43.308Z,98572.00
2023-02-22T09:08:09.895Z,98585.22
2023-02-22T09:10:36.835Z,98595.97
2023-02-22T09:13:05.631Z,98606.97
2023-02-22T09:15:32.800Z,98628.88
2023-02-22T09:17:59.626Z,98642.88
2023-02-22T09:20:26.225Z,98651.63
2023-02-22T09:22:53.112Z,98681.19
2023-02-22T09:25:20.765Z,98727.91
2023-02-22T09:27:48.370Z,98776.56
2023-02-22T09:30:24.002Z,98824.41
2023-02-22T09:32:54.781Z,98882.78
2023-02-22T09:35:26.971Z,98895.25
2023-02-22T09:37:57.121Z,98874.81
2023-02-22T09:40:29.939Z,98821.63
2023-02-22T09:43:09.293Z,98801.19
2023-02-22T09:45:48.222Z,98777.75
2023-02-22T09:48:21.945Z,98782.53
2023-02-22T09:50:50.793Z,98804.09
2023-02-22T09:53:29.834Z,98830.94
2023-02-22T09:56:02.203Z,98862.03
2023-02-22T09:58:33.500Z,98894.97
2023-02-22T10:01:18.904Z,98921.75
2023-02-22T10:03:48.202Z,98975.88
2023-02-22T10:06:17.707Z,98956.34
2023-02-22T10:08:47.342Z,98941.13
2023-02-22T10:11:16.841Z,98929.25
2023-02-22T10:14:03.557Z,98925.66
2023-02-22T10:16:42.232Z,98953.88
2023-02-22T10:19:21.011Z,99005.72
2023-02-22T10:22:07.714Z,99036.69
2023-02-22T10:24:39.818Z,99034.97
2023-02-22T10:27:08.468Z,99073.66
2023-02-22T10:29:39.924Z,99082.22
2023-02-22T10:32:07.013Z,99083.75
2023-02-22T10:34:39.717Z,99081.78
2023-02-22T10:37:25.581Z,99092.91
2023-02-22T10:39:56.471Z,99097.31
2023-02-22T10:42:25.113Z,99109.72
2023-02-22T10:44:51.580Z,99104.06
2023-02-22T10:47:21.045Z,99096.19
2023-02-22T10:49:53.577Z,99111.38
2023-02-22T10:52:24.487Z,99106.44
2023-02-22T10:54:52.006Z,99109.47
2023-02-22T10:57:24.874Z,99127.22
2023-02-22T10:59:53.394Z,99135.84
2023-02-22T11:02:19.909Z,99140.97
2023-02-22T11:04:46.439Z,99157.09
2023-02-22T11:07:24.214Z,99155.28
2023-02-22T11:10:00.188Z,99168.56
2023-02-22T11:12:29.677Z,99163.09
2023-02-22T11:14:56.922Z,99150.94
2023-02-22T11:17:30.448Z,99168.72
2023-02-22T11:19:57.691Z,99159.88
2023-02-22T11:22:31.016Z,99159.69
2023-02-22T11:25:07.502Z,99155.59
2023-02-22T11:27:38.698Z,99173.75
2023-02-22T11:30:11.263Z,99171.47
2023-02-22T11:32:43.727Z,99183.84
2023-02-22T11:35:37.055Z,99178.44
2023-02-22T11:38:21.249Z,99177.16
2023-02-22T11:41:04.476Z,99172.97
2023-02-22T11:43:31.332Z,99188.13
2023-02-22T11:46:09.910Z,99186.31
2023-02-22T11:48:39.358Z,99177.16
2023-02-22T11:51:14.498Z,99178.63
2023-02-22T11:54:08.226Z,99190.59
2023-02-22T11:56:40.162Z,99174.88
2023-02-22T11:59:11.534Z,99190.56
2023-02-22T12:01:37.979Z,99164.88
2023-02-22T12:04:23.897Z,99163.69
2023-02-22T12:06:57.657Z,99165.34
2023-02-22T12:09:43.513Z,99170.44
2023-02-22T12:12:31.124Z,99153.41
2023-02-22T12:15:17.801Z,99154.56
2023-02-22T12:17:59.479Z,99148.75
2023-02-22T12:20:37.789Z,99145.84
2023-02-22T12:23:13.361Z,99148.75
2023-02-22T12:25:58.461Z,99142.75
2023-02-22T12:28:32.422Z,99135.31
2023-02-22T12:31:07.020Z,99144.03
2023-02-22T12:33:42.567Z,99164.41
2023-02-22T12:36:14.234Z,99155.22
2023-02-22T12:38:44.413Z,99159.75
2023-02-22T12:41:20.852Z,99144.22
2023-02-22T12:44:00.089Z,99137.66
2023-02-22T12:46:29.957Z,99152.94
2023-02-22T12:49:08.640Z,99158.75
2023-02-22T12:51:49.703Z,99145.50
2023-02-22T12:54:19.183Z,99149.06
2023-02-22T12:56:58.480Z,99126.03
2023-02-22T12:59:38.955Z,99121.59
2023-02-22T13:02:17.588Z,99138.41
2023-02-22T13:04:44.114Z,99124.53
2023-02-22T13:07:24.034Z,99112.56
2023-02-22T13:10:06.636Z,99127.25
2023-02-22T13:12:36.186Z,99113.84
2023-02-22T13:15:22.868Z,99111.00
2023-02-22T13:18:01.866Z,99110.84
2023-02-22T13:20:35.398Z,99113.06
2023-02-22T13:23:05.056Z,99097.94
2023-02-22T13:25:31.470Z,99100.09
2023-02-22T13:28:12.844Z,99090.09
2023-02-22T13:30:41.730Z,99063.50
2023-02-22T13:33:14.535Z,99060.69
2023-02-22T13:35:41.006Z,99051.50
2023-02-22T13:38:10.507Z,99049.84
2023-02-22T13:40:55.984Z,99072.31
2023-02-22T13:43:41.196Z,99052.78
2023-02-22T13:46:18.608Z,99047.44
2023-02-22T13:48:49.533Z,99056.88
2023-02-22T13:51:16.033Z,99045.03
2023-02-22T13:53:48.710Z,99020.78
2023-02-22T13:56:16.243Z,99034.09
2023-02-22T13:59:09.042Z,99037.13
2023-02-22T14:01:40.531Z,99016.25
2023-02-22T14:04:39.888Z,99023.50
2023-02-22T14:07:34.152Z,99021.75
2023-02-22T14:10:01.809Z,98986.31
2023-02-22T14:12:31.510Z,99016.56
2023-02-22T14:15:22.037Z,99006.31
2023-02-22T14:17:57.558Z,99001.81
2023-02-22T14:20:32.543Z,99016.06
2023-02-22T14:23:19.968Z,99018.59
2023-02-22T14:25:47.409Z,99019.75
2023-02-22T14:28:32.674Z,99010.38
2023-02-22T14:31:34.396Z,99015.88
2023-02-22T14:34:04.102Z,98991.38
2023-02-22T14:36:30.595Z,99023.47
2023-02-22T14:39:02.167Z,99013.47
2023-02-22T14:41:30.126Z,99014.53
2023-02-22T14:43:57.553Z,99029.78
2023-02-22T14:46:28.214Z,99025.06
2023-02-22T14:49:00.521Z,99011.34
2023-02-22T14:51:34.298Z,99010.75
2023-02-22T14:54:08.951Z,98997.75
2023-02-22T14:56:49.259Z,98995.81
2023-02-22T14:59:25.181Z,99003.47
2023-02-22T15:02:11.507Z,98994.47
2023-02-22T15:04:38.672Z,98990.88
2023-02-22T15:07:09.680Z,98999.38
2023-02-22T15:09:37.668Z,98991.41
2023-02-22T15:12:04.191Z,98984.31
2023-02-22T15:14:33.105Z,98974.81
2023-02-22T15:17:01.448Z,98978.81
2023-02-22T15:19:30.362Z,98967.22
2023-02-22T15:21:57.928Z,98953.50
2023-02-22T15:24:25.912Z,98950.25
2023-02-22T15:27:01.914Z,98934.81
2023-02-22T15:29:49.400Z,98920.09
2023-02-22T15:32:20.361Z,98908.66
2023-02-22T15:34:46.933Z,98904.63
2023-02-22T15:37:25.352Z,98903.00
2023-02-22T15:39:59.348Z,98886.47
2023-02-22T15:42:29.368Z,98877.91
2023-02-22T15:44:56.474Z,98871.66
2023-02-22T15:47:24.408Z,98885.34
2023-02-22T15:50:15.267Z,98895.25
2023-02-22T15:52:49.660Z,98893.00
2023-02-22T15:55:17.116Z,98877.53
2023-02-22T15:57:44.072Z,98875.03
2023-02-22T16:00:39.077Z,98868.81
2023-02-22T16:03:07.761Z,98868.56
2023-02-22T16:06:00.352Z,98850.38
2023-02-22T16:08:53.976Z,98857.81
2023-02-22T16:11:29.826Z,98855.34
2023-02-22T16:14:01.356Z,98861.88
2023-02-22T16:16:32.930Z,98864.22
2023-02-22T16:19:18.016Z,98852.22
2023-02-22T16:21:58.326Z,98837.06
2023-02-22T16:24:27.446Z,98835.97
2023-02-22T16:27:06.033Z,98848.66
2023-02-22T16:29:32.831Z,98834.13
2023-02-22T16:31:59.477Z,98837.00
2023-02-22T16:34:25.981Z,98832.72
2023-02-22T16:36:52.538Z,98829.25
2023-02-22T16:39:24.974Z,98832.22
2023-02-22T16:41:51.895Z,98827.66
2023-02-22T16:44:18.381Z,98848.25
2023-02-22T16:46:45.163Z,98849.00
2023-02-22T16:49:12.288Z,98848.94
2023-02-22T16:51:47.465Z,98855.84
2023-02-22T16:54:15.203Z,98845.13
2023-02-22T16:56:41.775Z,98834.94
2023-02-22T16:59:14.132Z,98844.28
2023-02-22T17:01:40.998Z,98847.88
2023-02-22T17:04:18.018Z,98842.72
2023-02-22T17:06:44.615Z,98838.19
2023-02-22T17:09:11.062Z,98824.31
2023-02-22T17:11:38.192Z,98813.34
2023-02-22T17:14:05.019Z,98821.50
2023-02-22T17:16:31.493Z,98830.63
2023-02-22T17:18:57.929Z,98828.72
2023-02-22T17:21:24.392Z,98819.34
2023-02-22T17:23:51.245Z,98806.44
2023-02-22T17:26:18.366Z,98817.16
2023-02-22T17:28:45.122Z,98814.03
2023-02-22T17:31:19.959Z,98814.44
2023-02-22T17:33:46.481Z,98809.63
2023-02-22T17:36:13.384Z,98803.72
2023-02-22T17:38:41.707Z,98816.53
2023-02-22T17:41:08.235Z,98807.75
2023-02-22T17:43:35.022Z,98815.78
2023-02-22T17:46:07.917Z,98818.06
2023-02-22T17:48:34.815Z,98815.41
2023-02-22T17:51:04.917Z,98808.72
2023-02-22T17:53:31.435Z,98808.53
2023-02-22T17:55:58.222Z,98804.56
2023-02-22T17:58:28.895Z,98811.28
2023-02-22T18:00:59.253Z,98807.00
2023-02-22T18:03:26.568Z,98808.88
2023-02-22T18:05:57.575Z,98803.53
2023-02-22T18:08:24.978Z,98803.88
2023-02-22T18:10:56.279Z,98792.47
2023-02-22T18:13:24.084Z,98795.00
2023-02-22T18:15:50.889Z,98795.97
2023-02-22T18:18:18.049Z,98787.91
2023-02-22T18:20:46.439Z,98771.13
2023-02-22T18:23:16.171Z,98776.41
2023-02-22T18:26:03.855Z,98775.94
2023-02-22T18:28:35.605Z,98785.41
2023-02-22T18:31:06.346Z,98790.09
2023-02-22T18:33:32.812Z,98766.63
2023-02-22T18:36:00.448Z,98773.06
2023-02-22T18:38:26.910Z,98771.72
2023-02-22T18:41:03.598Z,98783.03
2023-02-22T18:43:31.784Z,98779.50
2023-02-22T18:46:12.062Z,98771.44
2023-02-22T18:48:38.816Z,98766.63
2023-02-22T18:51:07.049Z,98758.22
2023-02-22T18:53:33.502Z,98762.63
2023-02-22T18:56:09.146Z,98757.91
2023-02-22T18:58:38.597Z,98755.50
2023-02-22T19:01:06.343Z,98739.53
2023-02-22T19:03:34.250Z,98743.97
2023-02-22T19:06:04.879Z,98731.13
2023-02-22T19:08:32.606Z,98742.88
2023-02-22T19:11:03.782Z,98736.06
2023-02-22T19:13:30.869Z,98733.88
2023-02-22T19:15:57.389Z,98724.03
2023-02-22T19:18:25.145Z,98718.25
2023-02-22T19:21:01.661Z,98708.03
2023-02-22T19:23:28.656Z,98701.22
2023-02-22T19:25:55.756Z,98697.44
2023-02-22T19:28:28.049Z,98680.91
2023-02-22T19:30:54.542Z,98675.03
2023-02-22T19:33:26.082Z,98664.03
2023-02-22T19:35:52.560Z,98667.25
2023-02-22T19:38:19.665Z,98665.03
2023-02-22T19:40:46.692Z,98654.88
2023-02-22T19:43:14.229Z,98642.31
2023-02-22T19:45:41.012Z,98633.59
2023-02-22T19:48:07.480Z,98630.00
2023-02-22T19:50:34.034Z,98631.41
2023-02-22T19:53:00.532Z,98616.47
2023-02-22T19:55:32.288Z,98598.34
2023-02-22T19:57:59.180Z,98589.31
2023-02-22T20:00:27.180Z,98576.16
2023-02-22T20:03:05.655Z,98561.50
2023-02-22T20:05:42.095Z,98558.47
2023-02-22T20:08:08.812Z,98528.69
2023-02-22T20:10:35.277Z,98521.75
2023-02-22T20:13:01.815Z,98512.72
2023-02-22T20:15:28.396Z,98485.59
2023-02-22T20:17:55.086Z,98489.72
2023-02-22T20:20:25.734Z,98489.59
2023-02-22T20:22:52.384Z,98493.56
2023-02-22T20:25:19.292Z,98491.44
2023-02-22T20:27:46.600Z,98498.88
2023-02-22T20:30:13.200Z,98486.69
2023-02-22T20:32:39.907Z,98485.22
2023-02-22T20:35:06.930Z,98488.31
2023-02-22T20:37:34.338Z,98497.84
2023-02-22T20:40:00.885Z,98483.25
2023-02-22T20:42:27.452Z,98473.91
2023-02-22T20:44:54.310Z,98476.19
2023-02-22T20:47:21.383Z,98479.31
2023-02-22T20:49:47.851Z,98479.28
2023-02-22T20:52:14.426Z,98471.53
2023-02-22T20:54:40.972Z,98465.91
2023-02-22T20:57:08.099Z,98458.50
2023-02-22T20:59:34.727Z,98446.53
2023-02-22T21:02:01.837Z,98445.91
2023-02-22T21:04:33.695Z,98470.25
2023-02-22T21:07:03.228Z,98459.59
2023-02-22T21:09:29.951Z,98452.13
2023-02-22T21:11:56.485Z,98437.75
2023-02-22T21:14:24.337Z,98432.06
2023-02-22T21:16:51.920Z,98440.53
2023-02-22T21:19:25.920Z,98428.78
2023-02-22T21:21:54.881Z,98421.25
2023-02-22T21:24:25.891Z,98407.94
2023-02-22T21:26:52.482Z,98394.50
2023-02-22T21:29:19.460Z,98403.28
2023-02-22T21:31:46.061Z,98400.06
2023-02-22T21:34:13.642Z,98392.03
2023-02-22T21:36:40.513Z,98390.94
2023-02-22T21:39:17.926Z,98381.94
2023-02-22T21:41:50.445Z,98364.22
2023-02-22T21:44:17.976Z,98372.41
2023-02-22T21:46:44.804Z,98374.56
2023-02-22T21:49:11.492Z,98368.63
2023-02-22T21:51:38.248Z,98362.81
2023-02-22T21:54:06.760Z,98365.56
2023-02-22T21:56:37.119Z,98369.53
2023-02-22T21:59:13.858Z,98363.38
2023-02-22T22:01:47.151Z,98351.13
2023-02-22T22:04:18.873Z,98334.09
2023-02-22T22:06:47.656Z,98327.81
2023-02-22T22:09:20.234Z,98332.63
2023-02-22T22:11:46.657Z,98342.63
2023-02-22T22:14:13.640Z,98331.44
2023-02-22T22:16:40.603Z,98327.16
2023-02-22T22:19:07.713Z,98313.16
2023-02-22T22:21:34.157Z,98308.41
2023-02-22T22:24:02.045Z,98305.72
2023-02-22T22:26:28.542Z,98310.75
2023-02-22T22:28:58.064Z,98311.75
2023-02-22T22:31:28.837Z,98307.22
2023-02-22T22:33:56.325Z,98305.19
2023-02-22T22:36:23.609Z,98299.88
2023-02-22T22:38:50.509Z,98287.34
2023-02-22T22:41:18.896Z,98289.97
2023-02-22T22:43:48.806Z,98279.31
2023-02-22T22:46:17.370Z,98271.94
2023-02-22T22:48:47.043Z,98284.16
2023-02-22T22:51:20.204Z,98275.38
2023-02-22T22:53:47.969Z,98266.56
2023-02-22T22:56:18.602Z,98252.19
2023-02-22T22:58:53.006Z,98241.56
2023-02-22T23:01:24.100Z,98250.09
2023-02-22T23:03:55.784Z,98242.13
2023-02-22T23:06:26.481Z,98235.72
2023-02-22T23:08:58.347Z,98212.53
2023-02-22T23:11:24.849Z,98200.56
2023-02-22T23:13:51.339Z,98179.88
2023-02-22T23:16:19.819Z,98178.25
2023-02-22T23:18:46.319Z,98171.84
2023-02-22T23:21:12.753Z,98168.63
2023-02-22T23:23:39.652Z,98140.41
2023-02-22T23:26:11.658Z,98132.47
2023-02-22T23:28:39.832Z,98128.75
2023-02-22T23:31:10.382Z,98115.69
2023-02-22T23:33:38.465Z,98093.31
2023-02-22T23:36:05.668Z,98073.06
2023-02-22T23:38:34.839Z,98043.56
2023-02-22T23:41:02.707Z,98027.06
2023-02-22T23:43:32.553Z,98023.31
2023-02-22T23:46:03.026Z,98007.09
2023-02-22T23:48:30.150Z,97980.75
2023-02-22T23:50:59.316Z,97967.16
2023-02-22T23:53:26.108Z,97964.78
2023-02-22T23:55:52.850Z,97948.28
2023-02-22T23:58:22.841Z,97931.53
